Current Weather

Brize Norton

Brize Norton, United Kingdom (EGVN)

Report from: Friday, February 23, 2024 6:50 PM GMT
Current time: Friday, February 23, 2024 7:10 PM GMT

Nearby weather – Weather history – Daily summaries
Weather forecast

Temperature4.0°C (39.2°F)
Dew point2.0°C (35.6°F)
Winds 2 kts (1 m/s, 2.3 mph) Southwest (230°)
Visibility6.2 mi. (10 km)
Clouds Few clouds 1,700 ft. (518 m)
Scattered clouds 15,000 ft. (4,572 m)
Altimeter29.18 in.Hg (988 mB)
Relative humidity87 %
Density altitude-358 ft. (-109 m)
Remarks No significant changes expected in the next two hours
Flight conditions Visual Meteorological Conditions
Raw dataEGVN 231850Z 23002KT 9999 FEW017 SCT150 04/02 Q0988 NOSIG RMK BLU BLU
An error has occurred. This application may no longer respond until reloaded. Reload 🗙